createdAt,value
2018-12-16T00:00:28.363Z,18.20
2018-12-16T00:04:30.697Z,17.97
2018-12-16T00:08:33.035Z,17.97
2018-12-16T00:12:36.961Z,19.10
2018-12-16T00:16:40.617Z,18.33
2018-12-16T00:20:42.978Z,19.00
2018-12-16T00:24:45.392Z,19.67
2018-12-16T00:28:47.748Z,19.00
2018-12-16T00:32:50.126Z,19.30
2018-12-16T00:36:53.313Z,16.30
2018-12-16T00:40:55.763Z,18.30
2018-12-16T00:44:58.171Z,17.10
2018-12-16T00:49:00.528Z,17.87
2018-12-16T00:53:02.940Z,18.03
2018-12-16T00:57:05.387Z,17.03
2018-12-16T01:01:07.827Z,17.37
2018-12-16T01:05:11.408Z,15.73
2018-12-16T01:09:13.922Z,19.70
2018-12-16T01:13:16.307Z,16.53
2018-12-16T01:17:18.673Z,18.57
2018-12-16T01:21:20.992Z,17.33
2018-12-16T01:25:23.367Z,17.63
2018-12-16T01:29:25.762Z,18.53
2018-12-16T01:33:28.136Z,20.30
2018-12-16T01:37:30.482Z,18.97
2018-12-16T01:41:32.961Z,19.10
2018-12-16T01:45:35.257Z,19.57
2018-12-16T01:49:37.634Z,19.63
2018-12-16T01:53:39.907Z,20.17
2018-12-16T01:57:42.281Z,18.87
2018-12-16T02:01:50.203Z,20.80
2018-12-16T02:05:52.554Z,19.70
2018-12-16T02:09:54.940Z,20.83
2018-12-16T02:13:57.281Z,19.57
2018-12-16T02:17:59.602Z,18.23
2018-12-16T02:22:01.956Z,19.97
2018-12-16T02:26:04.310Z,20.27
2018-12-16T02:30:06.877Z,19.50
2018-12-16T02:34:09.247Z,21.20
2018-12-16T02:38:11.558Z,22.73
2018-12-16T02:42:13.997Z,19.03
2018-12-16T02:46:16.350Z,21.33
2018-12-16T02:50:18.745Z,21.53
2018-12-16T02:54:21.106Z,21.63
2018-12-16T02:58:23.582Z,20.60
2018-12-16T03:02:25.941Z,22.30
2018-12-16T03:06:28.228Z,21.27
2018-12-16T03:10:30.552Z,22.23
2018-12-16T03:14:32.866Z,21.87
2018-12-16T03:18:35.235Z,19.70
2018-12-16T03:22:37.545Z,23.40
2018-12-16T03:26:39.866Z,20.33
2018-12-16T03:30:42.167Z,21.80
2018-12-16T03:34:44.541Z,21.07
2018-12-16T03:38:47.661Z,21.20
2018-12-16T03:42:50.125Z,21.97
2018-12-16T03:46:52.521Z,21.43
2018-12-16T03:50:54.956Z,22.80
2018-12-16T03:54:57.384Z,22.10
2018-12-16T03:59:15.354Z,22.23
2018-12-16T04:03:17.815Z,21.30
2018-12-16T04:07:20.195Z,21.33
2018-12-16T04:11:22.696Z,21.07
2018-12-16T04:15:25.294Z,21.47
2018-12-16T04:19:27.880Z,22.17
2018-12-16T04:23:30.194Z,23.00
2018-12-16T04:27:32.500Z,22.73
2018-12-16T04:31:34.865Z,22.83
2018-12-16T04:35:37.210Z,20.70
2018-12-16T04:39:39.481Z,23.63
2018-12-16T04:43:41.816Z,22.20
2018-12-16T04:47:44.207Z,20.67
2018-12-16T04:51:46.549Z,22.03
2018-12-16T04:55:48.937Z,23.13
2018-12-16T04:59:51.286Z,22.93
2018-12-16T05:03:53.637Z,26.63
2018-12-16T05:07:56.094Z,28.20
2018-12-16T05:11:58.492Z,27.00
2018-12-16T05:16:00.834Z,26.87
2018-12-16T05:20:03.651Z,27.33
2018-12-16T05:24:06.030Z,24.00
2018-12-16T05:28:08.384Z,25.63
2018-12-16T05:32:10.679Z,27.73
2018-12-16T05:36:13.011Z,27.57
2018-12-16T05:40:15.319Z,31.07
2018-12-16T05:44:17.655Z,26.57
2018-12-16T05:48:19.969Z,26.83
2018-12-16T05:52:22.355Z,28.83
2018-12-16T05:56:24.763Z,29.50
2018-12-16T06:00:27.092Z,30.10
2018-12-16T06:04:29.408Z,30.13
2018-12-16T06:08:31.935Z,31.10
2018-12-16T06:12:34.258Z,30.67
2018-12-16T06:16:36.575Z,30.33
2018-12-16T06:20:38.875Z,33.17
2018-12-16T06:24:41.233Z,31.40
2018-12-16T06:28:43.552Z,28.10
2018-12-16T06:32:45.898Z,30.70
2018-12-16T06:36:48.233Z,29.63
2018-12-16T06:40:50.587Z,30.70
2018-12-16T06:44:52.892Z,29.03
2018-12-16T06:48:55.225Z,29.10
2018-12-16T06:52:57.574Z,30.43
2018-12-16T06:56:59.954Z,28.57
2018-12-16T07:01:02.359Z,32.43
2018-12-16T07:05:04.978Z,30.70
2018-12-16T07:09:07.566Z,30.80
2018-12-16T07:13:09.923Z,29.40
2018-12-16T07:17:12.266Z,30.23
2018-12-16T07:21:14.563Z,32.37
2018-12-16T07:25:17.298Z,30.50
2018-12-16T07:29:19.654Z,30.30
2018-12-16T07:33:21.951Z,31.00
2018-12-16T07:37:24.262Z,33.50
2018-12-16T07:41:26.649Z,33.17
2018-12-16T07:45:28.979Z,32.60
2018-12-16T07:49:31.321Z,34.60
2018-12-16T07:53:33.670Z,33.00
2018-12-16T07:57:36.119Z,33.57
2018-12-16T08:01:38.524Z,34.33
2018-12-16T08:05:40.883Z,34.87
2018-12-16T08:09:43.242Z,35.13
2018-12-16T08:13:45.566Z,33.17
2018-12-16T08:17:47.915Z,32.73
2018-12-16T08:21:50.257Z,33.07
2018-12-16T08:25:52.593Z,33.93
2018-12-16T08:29:54.989Z,35.27
2018-12-16T08:33:57.722Z,34.57
2018-12-16T08:38:00.011Z,34.97
2018-12-16T08:42:02.369Z,32.60
2018-12-16T08:46:04.778Z,34.93
2018-12-16T08:50:07.183Z,36.10
2018-12-16T08:54:09.576Z,32.83
2018-12-16T08:58:11.968Z,32.87
2018-12-16T09:02:14.274Z,35.00
2018-12-16T09:06:16.656Z,43.73
2018-12-16T09:10:19.028Z,55.47
2018-12-16T09:14:21.379Z,40.17
2018-12-16T09:18:23.702Z,39.07
2018-12-16T09:22:26.028Z,31.57
2018-12-16T09:26:28.492Z,33.70
2018-12-16T09:30:30.808Z,31.83
2018-12-16T09:34:33.139Z,33.00
2018-12-16T09:38:36.693Z,35.47
2018-12-16T09:42:39.054Z,35.27
2018-12-16T09:46:42.487Z,31.77
2018-12-16T09:50:44.880Z,33.83
2018-12-16T09:54:48.265Z,34.17
2018-12-16T09:58:50.739Z,34.87
2018-12-16T10:02:53.257Z,35.73
2018-12-16T10:06:56.205Z,43.43
2018-12-16T10:10:59.216Z,38.13
2018-12-16T10:15:01.608Z,32.60
2018-12-16T10:19:04.059Z,34.20
2018-12-16T10:23:07.328Z,32.90
2018-12-16T10:27:09.667Z,36.00
2018-12-16T10:31:12.102Z,32.43
2018-12-16T10:35:14.466Z,32.63
2018-12-16T10:39:16.904Z,30.83
2018-12-16T10:43:19.287Z,31.30
2018-12-16T10:47:21.658Z,29.70
2018-12-16T10:51:24.038Z,30.17
2018-12-16T10:55:26.325Z,30.60
2018-12-16T10:59:28.757Z,31.13
2018-12-16T11:03:31.089Z,30.97
2018-12-16T11:07:33.483Z,36.37
2018-12-16T11:11:35.851Z,31.33
2018-12-16T11:15:38.222Z,33.67
2018-12-16T11:19:40.638Z,33.13
2018-12-16T11:23:43.405Z,31.63
2018-12-16T11:27:45.782Z,32.43
2018-12-16T11:31:48.102Z,34.00
2018-12-16T11:35:50.523Z,33.93
2018-12-16T11:39:53.613Z,33.37
2018-12-16T11:43:56.396Z,30.03
2018-12-16T11:47:58.807Z,34.47
2018-12-16T11:52:01.186Z,32.07
2018-12-16T11:56:03.605Z,35.17
2018-12-16T12:00:06.317Z,34.33
2018-12-16T12:04:08.814Z,33.00
2018-12-16T12:08:11.189Z,34.77
2018-12-16T12:12:13.590Z,32.87
2018-12-16T12:16:15.978Z,32.10
2018-12-16T12:20:19.096Z,33.03
2018-12-16T12:24:21.583Z,37.80
2018-12-16T12:28:24.057Z,39.10
2018-12-16T12:32:26.581Z,33.67
2018-12-16T12:36:30.052Z,36.17
2018-12-16T12:40:32.412Z,34.87
2018-12-16T12:44:34.922Z,32.40
2018-12-16T12:48:37.645Z,40.90
2018-12-16T12:52:39.984Z,43.53
2018-12-16T12:56:42.717Z,38.27
2018-12-16T13:00:45.321Z,37.90
2018-12-16T13:04:48.398Z,39.40
2018-12-16T13:08:50.914Z,36.10
2018-12-16T13:12:53.333Z,36.17
2018-12-16T13:16:55.938Z,43.83
2018-12-16T13:20:59.252Z,52.50
2018-12-16T13:25:13.641Z,36.37
2018-12-16T13:29:16.125Z,38.37
2018-12-16T13:33:18.595Z,40.77
2018-12-16T13:37:21.302Z,40.80
2018-12-16T13:41:24.357Z,43.40
2018-12-16T13:45:26.806Z,37.07
2018-12-16T13:49:29.252Z,43.53
2018-12-16T13:53:31.839Z,40.30
2018-12-16T13:57:34.476Z,70.27
2018-12-16T14:01:36.879Z,40.63
2018-12-16T14:05:46.602Z,37.87
2018-12-16T14:09:45.672Z,40.83
2018-12-16T14:13:48.058Z,43.53
2018-12-16T14:17:50.623Z,37.87
2018-12-16T14:21:53.220Z,39.83
2018-12-16T14:25:55.607Z,41.77
2018-12-16T14:29:58.010Z,40.83
2018-12-16T14:34:00.831Z,39.00
2018-12-16T14:38:03.303Z,39.17
2018-12-16T14:42:05.694Z,37.57
2018-12-16T14:46:08.157Z,38.30
2018-12-16T14:50:10.891Z,39.60
2018-12-16T14:54:13.401Z,39.63
2018-12-16T14:58:15.858Z,36.80
2018-12-16T15:02:19.240Z,34.60
2018-12-16T15:06:21.582Z,36.37
2018-12-16T15:10:24.456Z,47.27
2018-12-16T15:14:27.034Z,42.67
2018-12-16T15:18:29.886Z,38.83
2018-12-16T15:22:32.282Z,43.27
2018-12-16T15:26:35.553Z,33.67
2018-12-16T15:30:42.589Z,34.70
2018-12-16T15:34:45.191Z,34.63
2018-12-16T15:38:47.801Z,36.70
2018-12-16T15:42:50.195Z,38.17
2018-12-16T15:46:52.616Z,42.47
2018-12-16T15:50:55.047Z,47.63
2018-12-16T15:54:57.514Z,38.33
2018-12-16T15:58:59.961Z,35.43
2018-12-16T16:03:02.384Z,40.47
2018-12-16T16:07:04.724Z,42.30
2018-12-16T16:11:07.190Z,35.30
2018-12-16T16:15:09.590Z,31.20
2018-12-16T16:19:12.012Z,36.57
2018-12-16T16:23:14.436Z,36.77
2018-12-16T16:27:16.870Z,38.13
2018-12-16T16:31:19.239Z,42.30
2018-12-16T16:35:21.635Z,39.90
2018-12-16T16:39:23.993Z,39.47
2018-12-16T16:43:27.144Z,46.55
2018-12-16T16:47:29.555Z,38.40
2018-12-16T16:51:31.974Z,31.70
2018-12-16T16:55:34.455Z,35.40
2018-12-16T16:59:37.052Z,33.20
2018-12-16T17:03:39.728Z,37.03
2018-12-16T17:07:42.201Z,34.47
2018-12-16T17:11:44.972Z,33.03
2018-12-16T17:15:47.385Z,38.10
2018-12-16T17:19:49.805Z,37.60
2018-12-16T17:23:53.208Z,39.80
2018-12-16T17:27:55.717Z,38.13
2018-12-16T17:31:58.116Z,32.93
2018-12-16T17:36:00.690Z,39.87
2018-12-16T17:40:03.738Z,35.83
2018-12-16T17:44:06.744Z,32.87
2018-12-16T17:48:09.176Z,32.47
2018-12-16T17:52:11.609Z,36.43
2018-12-16T17:56:19.063Z,32.67
2018-12-16T18:00:21.711Z,34.07
2018-12-16T18:04:24.127Z,39.00
2018-12-16T18:08:26.985Z,35.63
2018-12-16T18:12:29.427Z,34.00
2018-12-16T18:16:31.939Z,34.23
2018-12-16T18:20:34.331Z,32.53
2018-12-16T18:24:36.708Z,32.20
2018-12-16T18:28:39.832Z,39.40
2018-12-16T18:32:43.039Z,40.60
2018-12-16T18:36:45.460Z,35.83
2018-12-16T18:40:48.139Z,40.47
2018-12-16T18:44:50.749Z,40.10
2018-12-16T18:48:53.234Z,46.87
2018-12-16T18:52:55.964Z,38.47
2018-12-16T18:56:59.425Z,27.60
2018-12-16T19:01:01.796Z,25.60
2018-12-16T19:05:04.506Z,28.63
2018-12-16T19:09:07.674Z,30.60
2018-12-16T19:13:11.190Z,29.27
2018-12-16T19:17:13.780Z,28.90
2018-12-16T19:21:16.284Z,30.03
2018-12-16T19:25:18.945Z,31.17
2018-12-16T19:29:21.480Z,33.77
2018-12-16T19:33:24.032Z,29.53
2018-12-16T19:37:26.468Z,30.10
2018-12-16T19:41:29.713Z,30.53
2018-12-16T19:45:32.439Z,29.07
2018-12-16T19:49:34.925Z,28.57
2018-12-16T19:53:38.156Z,28.10
2018-12-16T19:57:41.127Z,31.53
2018-12-16T20:01:43.723Z,33.83
2018-12-16T20:06:55.312Z,35.63
2018-12-16T20:10:57.736Z,30.70
2018-12-16T20:15:01.171Z,26.20
2018-12-16T20:19:03.556Z,23.70
2018-12-16T20:23:06.017Z,23.97
2018-12-16T20:27:12.114Z,21.70
2018-12-16T20:31:21.648Z,25.80
2018-12-16T20:35:24.180Z,28.57
2018-12-16T20:39:26.723Z,26.23
2018-12-16T20:43:29.160Z,31.20
2018-12-16T20:47:31.940Z,23.93
2018-12-16T20:51:34.408Z,31.40
2018-12-16T20:55:36.837Z,25.97
2018-12-16T20:59:39.669Z,28.77
2018-12-16T21:03:42.322Z,31.33
2018-12-16T21:07:46.283Z,32.07
2018-12-16T21:11:54.596Z,30.37
2018-12-16T21:16:03.373Z,29.47
2018-12-16T21:20:14.954Z,26.30
2018-12-16T21:24:17.853Z,28.27
2018-12-16T21:28:21.393Z,22.83
2018-12-16T21:32:24.065Z,25.00
2018-12-16T21:36:28.092Z,25.77
2018-12-16T21:40:30.510Z,27.90
2018-12-16T21:44:32.942Z,26.20
2018-12-16T21:48:35.346Z,24.70
2018-12-16T21:52:37.713Z,24.20
2018-12-16T21:56:40.097Z,24.27
2018-12-16T22:00:43.408Z,27.37
2018-12-16T22:04:45.835Z,29.13
2018-12-16T22:08:48.245Z,33.60
2018-12-16T22:12:50.919Z,44.37
2018-12-16T22:16:53.805Z,35.60
2018-12-16T22:20:56.266Z,29.47
2018-12-16T22:24:59.211Z,30.67
2018-12-16T22:29:01.820Z,36.13
2018-12-16T22:33:04.666Z,33.80
2018-12-16T22:37:07.050Z,30.17
2018-12-16T22:41:09.756Z,26.73
2018-12-16T22:45:12.269Z,27.63
2018-12-16T22:49:14.675Z,25.40
2018-12-16T22:53:17.025Z,24.43
2018-12-16T22:57:19.439Z,25.03
2018-12-16T23:01:21.901Z,23.83
2018-12-16T23:05:24.316Z,22.47
2018-12-16T23:09:26.779Z,22.83
2018-12-16T23:13:29.161Z,21.27
2018-12-16T23:17:31.525Z,19.97
2018-12-16T23:21:34.114Z,17.97
2018-12-16T23:25:36.440Z,17.93
2018-12-16T23:29:38.740Z,18.80
2018-12-16T23:33:41.331Z,19.73
2018-12-16T23:37:43.671Z,18.33
2018-12-16T23:41:46.079Z,21.10
2018-12-16T23:45:48.431Z,23.50
2018-12-16T23:49:50.860Z,18.63
2018-12-16T23:53:53.226Z,18.53
2018-12-16T23:58:01.042Z,18.63
